Time;durP1;ratioP1;P1;durP2;ratioP2;P2;SDS_P1;SDS_P2;PMS_P1;PMS_P2;Temp;Humidity;BMP_temperature;BMP_pressure;BME280_temperature;BME280_humidity;BME280_pressure;Samples;Min_cycle;Max_cycle;Signal;HPM_P1;HPM_P2
2023/03/08 00:00:21;;;;;;;19.10;4.13;;;;;;;;;;4977241;28;20035;-74
2023/03/08 00:02:47;;;;;;;17.48;4.75;;;;;;;;;;4972813;28;20396;-67
2023/03/08 00:05:13;;;;;;;22.33;5.53;;;;;;;;;;4976643;28;20141;-67
2023/03/08 00:07:39;;;;;;;27.00;5.53;;;;;;;;;;4970538;28;20030;-66
2023/03/08 00:10:06;;;;;;;22.45;4.43;;;;;;;;;;4974846;28;20213;-67
2023/03/08 00:12:32;;;;;;;20.95;5.25;;;;;;;;;;4969728;28;20046;-68
2023/03/08 00:14:58;;;;;;;21.48;6.78;;;;;;;;;;4979145;28;20030;-67
2023/03/08 00:17:25;;;;;;;19.10;6.03;;;;;;;;;;4980928;28;20500;-67
2023/03/08 00:19:51;;;;;;;15.82;5.03;;;;;;;;;;4977639;28;20092;-67
2023/03/08 00:22:17;;;;;;;17.65;4.28;;;;;;;;;;4972649;28;20041;-67
2023/03/08 00:24:44;;;;;;;17.60;4.75;;;;;;;;;;4980149;28;20135;-67
2023/03/08 00:27:10;;;;;;;18.25;4.38;;;;;;;;;;4975464;28;20129;-67
2023/03/08 00:29:36;;;;;;;19.90;4.00;;;;;;;;;;4975551;28;20492;-68
2023/03/08 00:32:02;;;;;;;17.55;4.47;;;;;;;;;;4975415;28;20021;-67
2023/03/08 00:34:28;;;;;;;19.60;5.82;;;;;;;;;;4974673;28;20046;-67
2023/03/08 00:36:54;;;;;;;18.17;5.82;;;;;;;;;;4978757;28;20450;-67
2023/03/08 00:39:20;;;;;;;20.75;6.30;;;;;;;;;;4975083;28;20088;-67
2023/03/08 00:41:47;;;;;;;17.05;5.68;;;;;;;;;;4977879;28;20072;-67
2023/03/08 00:44:13;;;;;;;20.88;4.32;;;;;;;;;;4978501;28;20037;-66
2023/03/08 00:46:39;;;;;;;13.57;3.40;;;;;;;;;;4970708;28;20471;-67
2023/03/08 00:49:05;;;;;;;15.30;3.80;;;;;;;;;;4973174;28;20057;-67
2023/03/08 00:51:31;;;;;;;16.70;4.55;;;;;;;;;;4978666;28;20041;-67
2023/03/08 00:53:57;;;;;;;11.50;3.13;;;;;;;;;;4975198;28;21032;-68
2023/03/08 00:56:23;;;;;;;12.85;3.53;;;;;;;;;;4974510;28;20045;-67
2023/03/08 00:58:50;;;;;;;13.05;3.25;;;;;;;;;;4978619;28;20091;-67
2023/03/08 01:01:17;;;;;;;11.63;3.45;;;;;;;;;;4973584;28;20395;-67
2023/03/08 01:03:43;;;;;;;13.48;3.45;;;;;;;;;;4973236;28;20177;-68
2023/03/08 01:06:12;;;;;;;12.98;4.28;;;;;;;;;;4977390;28;20053;-67
2023/03/08 01:08:41;;;;;;;12.18;3.80;;;;;;;;;;4976247;28;20026;-68
2023/03/08 01:11:13;;;;;;;18.00;5.18;;;;;;;;;;4975503;28;20060;-68
2023/03/08 01:13:39;;;;;;;12.55;3.85;;;;;;;;;;4976489;28;20121;-67
2023/03/08 01:16:05;;;;;;;17.05;5.07;;;;;;;;;;4978612;28;20112;-67
2023/03/08 01:18:31;;;;;;;18.10;4.68;;;;;;;;;;4977510;28;20049;-68
2023/03/08 01:20:58;;;;;;;21.85;5.68;;;;;;;;;;4979217;28;20109;-67
2023/03/08 01:23:25;;;;;;;19.75;6.18;;;;;;;;;;4968623;28;20085;-68
2023/03/08 01:25:58;;;;;;;20.85;5.20;;;;;;;;;;4975754;28;20069;-67
2023/03/08 01:28:24;;;;;;;15.57;4.43;;;;;;;;;;4970839;28;20038;-67
2023/03/08 01:30:50;;;;;;;16.10;4.05;;;;;;;;;;4980672;28;20116;-67
2023/03/08 01:33:16;;;;;;;14.20;4.55;;;;;;;;;;4976038;28;20481;-67
2023/03/08 01:35:42;;;;;;;13.40;3.83;;;;;;;;;;4978820;28;20062;-67
2023/03/08 01:38:08;;;;;;;15.40;4.78;;;;;;;;;;4978562;28;20030;-67
2023/03/08 01:40:35;;;;;;;19.20;5.20;;;;;;;;;;4977089;28;20886;-67
2023/03/08 01:43:10;;;;;;;19.02;4.78;;;;;;;;;;4976437;28;20338;-69
2023/03/08 01:45:55;;;;;;;17.65;4.88;;;;;;;;;;4976452;28;20038;-68
2023/03/08 01:48:24;;;;;;;20.92;5.20;;;;;;;;;;4976022;28;20114;-69
2023/03/08 01:50:50;;;;;;;14.50;4.22;;;;;;;;;;4980014;28;20432;-67
2023/03/08 01:53:16;;;;;;;14.43;3.92;;;;;;;;;;4977639;28;20562;-69
2023/03/08 01:55:43;;;;;;;14.80;4.32;;;;;;;;;;4985210;28;20040;-69
2023/03/08 01:58:09;;;;;;;15.50;4.35;;;;;;;;;;4981508;28;20041;-70
2023/03/08 02:00:37;;;;;;;18.13;4.32;;;;;;;;;;4977814;28;20159;-70
2023/03/08 02:03:08;;;;;;;13.82;3.95;;;;;;;;;;4977688;28;20551;-69
2023/03/08 02:05:36;;;;;;;15.90;4.75;;;;;;;;;;4975552;28;20041;-67
2023/03/08 02:08:02;;;;;;;10.80;3.30;;;;;;;;;;4982787;28;20030;-70
2023/03/08 02:10:28;;;;;;;15.07;4.10;;;;;;;;;;4977155;28;20042;-68
2023/03/08 02:12:55;;;;;;;16.02;3.78;;;;;;;;;;4982406;28;20490;-68
2023/03/08 02:15:21;;;;;;;15.15;3.40;;;;;;;;;;4978041;28;20093;-68
2023/03/08 02:17:47;;;;;;;;;;;;;;;;;;4975745;28;20489;-68
2023/03/08 02:20:18;;;;;;;13.75;3.70;;;;;;;;;;4980117;28;20317;-69
2023/03/08 02:22:45;;;;;;;11.10;3.65;;;;;;;;;;4979092;28;20030;-69
2023/03/08 02:25:16;;;;;;;14.68;3.95;;;;;;;;;;4979901;28;20476;-68
2023/03/08 02:27:42;;;;;;;15.27;4.07;;;;;;;;;;4981602;28;20672;-68
2023/03/08 02:30:10;;;;;;;14.63;3.63;;;;;;;;;;4980779;28;20018;-68
2023/03/08 02:32:36;;;;;;;12.75;4.50;;;;;;;;;;4977464;28;20666;-68
2023/03/08 02:35:02;;;;;;;14.40;3.75;;;;;;;;;;4979514;28;20053;-67
2023/03/08 02:37:28;;;;;;;15.43;3.80;;;;;;;;;;4974936;28;20034;-67
2023/03/08 02:39:54;;;;;;;18.63;4.10;;;;;;;;;;4978178;28;20048;-69
2023/03/08 02:42:20;;;;;;;11.20;3.20;;;;;;;;;;4974989;28;20296;-68
2023/03/08 02:44:46;;;;;;;12.13;3.60;;;;;;;;;;4981400;28;20108;-67
2023/03/08 02:47:13;;;;;;;14.43;3.80;;;;;;;;;;4979060;28;20034;-67
2023/03/08 02:49:39;;;;;;;15.32;3.67;;;;;;;;;;4977883;28;20767;-67
2023/03/08 02:52:05;;;;;;;14.32;4.00;;;;;;;;;;4976121;28;20323;-67
2023/03/08 02:54:31;;;;;;;14.18;3.70;;;;;;;;;;4979023;28;20080;-68
2023/03/08 02:56:57;;;;;;;13.23;4.22;;;;;;;;;;4978902;28;20115;-68
2023/03/08 02:59:23;;;;;;;13.07;4.22;;;;;;;;;;4977467;28;20034;-67
2023/03/08 03:01:49;;;;;;;13.65;4.35;;;;;;;;;;4974392;28;20060;-68
2023/03/08 03:04:16;;;;;;;14.38;4.57;;;;;;;;;;4977385;28;20353;-67
2023/03/08 03:06:42;;;;;;;17.45;5.32;;;;;;;;;;4977784;28;20424;-68
2023/03/08 03:09:08;;;;;;;15.90;5.22;;;;;;;;;;4978338;28;20420;-68
2023/03/08 03:11:34;;;;;;;;;;;;;;;;;;4977556;28;20026;-68
2023/03/08 03:14:00;;;;;;;15.68;5.60;;;;;;;;;;4976458;28;19984;-68
2023/03/08 03:16:27;;;;;;;17.30;6.15;;;;;;;;;;4974826;28;20030;-68
2023/03/08 03:18:54;;;;;;;14.13;5.40;;;;;;;;;;4976667;28;20030;-68
2023/03/08 03:21:20;;;;;;;13.07;5.72;;;;;;;;;;4978966;28;20042;-68
2023/03/08 03:23:47;;;;;;;15.55;5.15;;;;;;;;;;4975313;28;20026;-68
2023/03/08 03:26:14;;;;;;;14.23;4.97;;;;;;;;;;4978171;28;20109;-67
2023/03/08 03:28:41;;;;;;;13.25;4.78;;;;;;;;;;4976304;28;20061;-68
2023/03/08 03:31:11;;;;;;;14.95;4.45;;;;;;;;;;4976097;28;20049;-67
2023/03/08 03:33:38;;;;;;;13.25;4.45;;;;;;;;;;4973934;28;20043;-67
2023/03/08 03:36:04;;;;;;;13.02;3.30;;;;;;;;;;4976573;28;20062;-68
2023/03/08 03:38:30;;;;;;;;;;;;;;;;;;4976780;28;20638;-68
2023/03/08 03:41:04;;;;;;;10.25;2.55;;;;;;;;;;4981480;28;20965;-68
2023/03/08 03:43:30;;;;;;;8.88;2.50;;;;;;;;;;4977988;28;20157;-67
2023/03/08 03:45:56;;;;;;;;;;;;;;;;;;4977797;28;20568;-67
2023/03/08 03:48:22;;;;;;;;;;;;;;;;;;4974817;28;19920;-68
2023/03/08 03:50:48;;;;;;;;;;;;;;;;;;4979386;28;19909;-67
2023/03/08 03:53:14;;;;;;;;;;;;;;;;;;4982799;28;20024;-67
2023/03/08 03:55:40;;;;;;;;;;;;;;;;;;4978813;28;19953;-67
2023/03/08 03:58:06;;;;;;;;;;;;;;;;;;4977602;28;19913;-67
2023/03/08 04:00:32;;;;;;;;;;;;;;;;;;4977619;28;19969;-68
2023/03/08 04:02:58;;;;;;;;;;;;;;;;;;4979380;28;20315;-68
2023/03/08 04:05:24;;;;;;;;;;;;;;;;;;4975917;28;19920;-68
2023/03/08 04:07:50;;;;;;;;;;;;;;;;;;4981600;28;19918;-68
2023/03/08 04:10:16;;;;;;;;;;;;;;;;;;4974356;28;20065;-69
2023/03/08 04:12:42;;;;;;;;;;;;;;;;;;4977927;28;20414;-70
2023/03/08 04:15:08;;;;;;;;;;;;;;;;;;4979197;28;20189;-67
2023/03/08 04:17:34;;;;;;;;;;;;;;;;;;4976151;28;20055;-67
2023/03/08 04:20:00;;;;;;;;;;;;;;;;;;4977521;28;19924;-67
2023/03/08 04:22:26;;;;;;;;;;;;;;;;;;4976028;28;19974;-67
2023/03/08 04:24:52;;;;;;;;;;;;;;;;;;4976379;28;20456;-68
2023/03/08 04:27:18;;;;;;;;;;;;;;;;;;4975840;28;19922;-68
2023/03/08 04:29:44;;;;;;;;;;;;;;;;;;4977640;28;19964;-68
2023/03/08 04:32:10;;;;;;;;;;;;;;;;;;4973524;28;20193;-69
2023/03/08 04:34:36;;;;;;;;;;;;;;;;;;4971187;28;20293;-67
2023/03/08 04:37:02;;;;;;;;;;;;;;;;;;4977685;28;20429;-68
2023/03/08 04:39:28;;;;;;;;;;;;;;;;;;4976820;28;20492;-68
2023/03/08 04:41:53;;;;;;;;;;;;;;;;;;4976244;28;20154;-67
2023/03/08 04:44:19;;;;;;;;;;;;;;;;;;4972125;28;20458;-68
2023/03/08 04:46:45;;;;;;;;;;;;;;;;;;4981468;28;19971;-68
2023/03/08 04:49:11;;;;;;;;;;;;;;;;;;4976842;28;19924;-68
2023/03/08 04:51:37;;;;;;;;;;;;;;;;;;4973077;28;20521;-68
2023/03/08 04:54:03;;;;;;;;;;;;;;;;;;4978395;28;20438;-68
2023/03/08 04:56:29;;;;;;;;;;;;;;;;;;4972295;28;19920;-68
2023/03/08 04:58:55;;;;;;;;;;;;;;;;;;4977927;28;20344;-68
2023/03/08 05:01:25;;;;;;;;;;;;;;;;;;4976784;28;20268;-69
2023/03/08 05:03:51;;;;;;;;;;;;;;;;;;4972351;28;20231;-67
2023/03/08 05:06:17;;;;;;;;;;;;;;;;;;4970922;28;19975;-67
2023/03/08 05:08:43;;;;;;;;;;;;;;;;;;4978741;28;20265;-67
2023/03/08 05:11:09;;;;;;;;;;;;;;;;;;4973612;28;20372;-68
2023/03/08 05:13:35;;;;;;;;;;;;;;;;;;4974147;28;20509;-67
2023/03/08 05:16:01;;;;;;;;;;;;;;;;;;4975579;28;20430;-67
2023/03/08 05:18:27;;;;;;;;;;;;;;;;;;4976718;28;19920;-68
2023/03/08 05:20:53;;;;;;;;;;;;;;;;;;4972574;28;20442;-68
2023/03/08 05:23:19;;;;;;;;;;;;;;;;;;4973084;28;19999;-67
2023/03/08 05:25:45;;;;;;;;;;;;;;;;;;4978259;28;19917;-69
2023/03/08 05:28:14;;;;;;;;;;;;;;;;;;4974871;28;19953;-69
2023/03/08 05:30:40;;;;;;;;;;;;;;;;;;4980062;28;19996;-69
2023/03/08 05:33:06;;;;;;;;;;;;;;;;;;4975535;28;20332;-68
2023/03/08 05:35:32;;;;;;;;;;;;;;;;;;4974133;28;19944;-68
2023/03/08 05:37:58;;;;;;;;;;;;;;;;;;4979716;28;19923;-67
2023/03/08 05:40:24;;;;;;;;;;;;;;;;;;4973376;28;20620;-68
2023/03/08 05:42:50;;;;;;;;;;;;;;;;;;4975858;28;19965;-68
2023/03/08 05:45:16;;;;;;;;;;;;;;;;;;4976825;28;20051;-67
2023/03/08 05:47:42;;;;;;;;;;;;;;;;;;4977443;28;20155;-67
2023/03/08 05:50:08;;;;;;;;;;;;;;;;;;4978256;28;19913;-68
2023/03/08 05:52:34;;;;;;;;;;;;;;;;;;4973866;28;19953;-68
2023/03/08 05:55:00;;;;;;;;;;;;;;;;;;4981300;28;19914;-67
2023/03/08 05:57:26;;;;;;;;;;;;;;;;;;4976463;28;19920;-67
2023/03/08 05:59:52;;;;;;;;;;;;;;;;;;4980617;28;20525;-67
2023/03/08 06:02:18;;;;;;;;;;;;;;;;;;4972402;28;19920;-68
2023/03/08 06:04:44;;;;;;;;;;;;;;;;;;4975440;28;20537;-69
2023/03/08 06:07:10;;;;;;;;;;;;;;;;;;4976687;28;20551;-68
2023/03/08 06:09:36;;;;;;;;;;;;;;;;;;4974290;28;19918;-69
2023/03/08 06:12:02;;;;;;;;;;;;;;;;;;4979150;28;19921;-68
2023/03/08 06:14:28;;;;;;;;;;;;;;;;;;4978519;28;20269;-67
2023/03/08 06:16:54;;;;;;;;;;;;;;;;;;4975757;28;19960;-67
2023/03/08 06:19:20;;;;;;;;;;;;;;;;;;4976278;28;20004;-67
2023/03/08 06:21:46;;;;;;;;;;;;;;;;;;4980939;28;19945;-68
2023/03/08 06:24:12;;;;;;;;;;;;;;;;;;4977662;28;20433;-68
2023/03/08 06:26:38;;;;;;;;;;;;;;;;;;4973656;28;19917;-66
2023/03/08 06:29:03;;;;;;;;;;;;;;;;;;4978711;28;19991;-67
2023/03/08 06:31:29;;;;;;;;;;;;;;;;;;4975620;28;20431;-68
2023/03/08 06:33:55;;;;;;;;;;;;;;;;;;4986035;28;20629;-67
2023/03/08 06:36:21;;;;;;;;;;;;;;;;;;4981390;28;20000;-67
2023/03/08 06:38:47;;;;;;;;;;;;;;;;;;4980623;28;20330;-67
2023/03/08 06:41:13;;;;;;;;;;;;;;;;;;4981191;28;19913;-67
2023/03/08 06:43:39;;;;;;;;;;;;;;;;;;4978239;28;19941;-68
2023/03/08 06:46:05;;;;;;;;;;;;;;;;;;4980571;28;19925;-67
2023/03/08 06:48:31;;;;;;;;;;;;;;;;;;4979723;28;20310;-67
2023/03/08 06:50:57;;;;;;;;;;;;;;;;;;4978960;28;20683;-66
2023/03/08 06:53:23;;;;;;;;;;;;;;;;;;4977887;28;19949;-66
2023/03/08 06:55:49;;;;;;;;;;;;;;;;;;4981183;28;19997;-67
2023/03/08 06:58:15;;;;;;;;;;;;;;;;;;4976362;28;20067;-67
2023/03/08 07:00:41;;;;;;;;;;;;;;;;;;4979864;28;19913;-67
2023/03/08 07:03:07;;;;;;;;;;;;;;;;;;4981942;28;20471;-67
2023/03/08 07:05:33;;;;;;;;;;;;;;;;;;4974475;28;19921;-66
2023/03/08 07:07:59;;;;;;;;;;;;;;;;;;4981170;28;19917;-68
2023/03/08 07:10:25;;;;;;;;;;;;;;;;;;4976763;28;19913;-67
2023/03/08 07:12:51;;;;;;;;;;;;;;;;;;4979153;28;19921;-67
2023/03/08 07:15:17;;;;;;;;;;;;;;;;;;4979334;28;19983;-68
2023/03/08 07:17:43;;;;;;;;;;;;;;;;;;4979760;28;19913;-67
2023/03/08 07:20:09;;;;;;;;;;;;;;;;;;4981785;28;19914;-67
2023/03/08 07:22:35;;;;;;;;;;;;;;;;;;4980029;28;20579;-68
2023/03/08 07:25:01;;;;;;;;;;;;;;;;;;4980114;28;20354;-68
2023/03/08 07:27:27;;;;;;;;;;;;;;;;;;4976508;28;19941;-68
2023/03/08 07:29:53;;;;;;;;;;;;;;;;;;4981510;28;19917;-66
2023/03/08 07:32:19;;;;;;;;;;;;;;;;;;4979321;28;19914;-67
2023/03/08 07:34:45;;;;;;;;;;;;;;;;;;4980037;28;19922;-67
2023/03/08 07:37:11;;;;;;;;;;;;;;;;;;4979009;28;19960;-68
2023/03/08 07:39:37;;;;;;;;;;;;;;;;;;4976372;28;19920;-67
2023/03/08 07:42:03;;;;;;;;;;;;;;;;;;4977997;28;19999;-66
2023/03/08 07:44:29;;;;;;;;;;;;;;;;;;4974984;28;20249;-66
2023/03/08 07:46:55;;;;;;;;;;;;;;;;;;4980596;28;19923;-66
2023/03/08 07:49:21;;;;;;;;;;;;;;;;;;4976745;28;19913;-70
2023/03/08 07:51:47;;;;;;;;;;;;;;;;;;4977539;28;19921;-68
2023/03/08 07:54:13;;;;;;;;;;;;;;;;;;4981307;28;19917;-67
2023/03/08 07:56:39;;;;;;;;;;;;;;;;;;4977349;28;19913;-75
2023/03/08 07:59:05;;;;;;;;;;;;;;;;;;4973778;28;19919;-70
2023/03/08 08:01:31;;;;;;;;;;;;;;;;;;4977562;28;20391;-67
2023/03/08 08:03:57;;;;;;;;;;;;;;;;;;4977021;28;19913;-71
2023/03/08 08:06:23;;;;;;;;;;;;;;;;;;4973572;28;19983;-68
2023/03/08 08:08:49;;;;;;;;;;;;;;;;;;4981141;28;20454;-73
2023/03/08 08:11:15;;;;;;;;;;;;;;;;;;4971922;28;19940;-73
2023/03/08 08:13:41;;;;;;;;;;;;;;;;;;4977055;28;20540;-73
2023/03/08 08:16:07;;;;;;;;;;;;;;;;;;4974161;28;20356;-74
2023/03/08 08:18:33;;;;;;;;;;;;;;;;;;4972551;28;19920;-73
2023/03/08 08:20:59;;;;;;;;;;;;;;;;;;4979077;28;20040;-72
2023/03/08 08:23:26;;;;;;;;;;;;;;;;;;4972133;28;20333;-73
2023/03/08 08:25:52;;;;;;;;;;;;;;;;;;4980319;28;20290;-74
2023/03/08 08:28:18;;;;;;;;;;;;;;;;;;4972791;28;20004;-74
2023/03/08 08:30:44;;;;;;;;;;;;;;;;;;4983210;28;19920;-74
2023/03/08 08:33:10;;;;;;;;;;;;;;;;;;4975982;28;19948;-74
2023/03/08 08:35:36;;;;;;;;;;;;;;;;;;4975773;28;20347;-74
2023/03/08 08:38:02;;;;;;;;;;;;;;;;;;4979231;28;20121;-74
2023/03/08 08:40:28;;;;;;;;;;;;;;;;;;4976429;28;19920;-74
2023/03/08 08:42:54;;;;;;;;;;;;;;;;;;4980540;28;19917;-75
2023/03/08 08:45:20;;;;;;;;;;;;;;;;;;4978495;28;19940;-73
2023/03/08 08:47:46;;;;;;;;;;;;;;;;;;4979709;28;19925;-72
2023/03/08 08:50:12;;;;;;;;;;;;;;;;;;4979826;28;20134;-75
2023/03/08 08:52:38;;;;;;;;;;;;;;;;;;4971167;28;19917;-74
2023/03/08 08:55:04;;;;;;;;;;;;;;;;;;4983439;28;20379;-75
2023/03/08 08:57:30;;;;;;;;;;;;;;;;;;4977410;28;19963;-74
2023/03/08 08:59:55;;;;;;;;;;;;;;;;;;4979029;28;19921;-75
2023/03/08 09:02:21;;;;;;;;;;;;;;;;;;4978425;28;19913;-75
2023/03/08 09:04:47;;;;;;;;;;;;;;;;;;4979123;28;19921;-75
2023/03/08 09:07:13;;;;;;;;;;;;;;;;;;4976738;28;20391;-73
2023/03/08 09:09:39;;;;;;;;;;;;;;;;;;4978437;28;19921;-73
2023/03/08 09:12:05;;;;;;;;;;;;;;;;;;4972541;28;19996;-73
2023/03/08 09:14:31;;;;;;;;;;;;;;;;;;4971834;28;20381;-73
2023/03/08 09:16:57;;;;;;;;;;;;;;;;;;4981673;28;19910;-73
2023/03/08 09:19:23;;;;;;;;;;;;;;;;;;4972131;28;19913;-72
2023/03/08 09:21:49;;;;;;;;;;;;;;;;;;4975500;28;20719;-72
2023/03/08 09:24:15;;;;;;;;;;;;;;;;;;4980696;28;20379;-74
2023/03/08 09:26:41;;;;;;;;;;;;;;;;;;4975005;28;19917;-72
2023/03/08 09:29:07;;;;;;;;;;;;;;;;;;4979098;28;20331;-71
2023/03/08 09:31:33;;;;;;;;;;;;;;;;;;4976919;28;19967;-72
2023/03/08 09:33:59;;;;;;;;;;;;;;;;;;4975763;28;19920;-73
2023/03/08 09:36:27;;;;;;;;;;;;;;;;;;4977482;28;20242;-72
2023/03/08 09:38:53;;;;;;;;;;;;;;;;;;4975800;28;20078;-72
2023/03/08 09:41:24;;;;;;;;;;;;;;;;;;4974394;28;19924;-72
2023/03/08 09:43:50;;;;;;;;;;;;;;;;;;4981023;28;20179;-72
2023/03/08 09:46:16;;;;;;;;;;;;;;;;;;4988279;28;20202;-73
2023/03/08 09:48:45;;;;;;;;;;;;;;;;;;4993884;28;19913;-71
2023/03/08 09:51:11;;;;;;;;;;;;;;;;;;4988010;28;20292;-72
2023/03/08 09:53:37;;;;;;;;;;;;;;;;;;4979957;28;20008;-72
2023/03/08 09:56:03;;;;;;;;;;;;;;;;;;4986768;28;19910;-72
2023/03/08 09:58:29;;;;;;;;;;;;;;;;;;4979177;28;20493;-72
2023/03/08 10:00:55;;;;;;;;;;;;;;;;;;4985549;28;19917;-72
2023/03/08 10:03:21;;;;;;;;;;;;;;;;;;4979809;28;19996;-72
2023/03/08 10:05:47;;;;;;;;;;;;;;;;;;4984942;28;19909;-72
2023/03/08 10:08:13;;;;;;;;;;;;;;;;;;4989456;28;19924;-71
2023/03/08 10:10:39;;;;;;;;;;;;;;;;;;4978761;28;20343;-71
2023/03/08 10:13:05;;;;;;;;;;;;;;;;;;4979791;28;20010;-72
2023/03/08 10:15:31;;;;;;;;;;;;;;;;;;4979424;28;19925;-72
2023/03/08 10:17:57;;;;;;;;;;;;;;;;;;4978966;28;20398;-71
2023/03/08 10:20:23;;;;;;;;;;;;;;;;;;4974885;28;19940;-72
2023/03/08 10:22:49;;;;;;;;;;;;;;;;;;4978924;28;19917;-72
2023/03/08 10:25:15;;;;;;;;;;;;;;;;;;4987440;28;20205;-72
2023/03/08 10:27:41;;;;;;;;;;;;;;;;;;4979838;28;19917;-72
2023/03/08 10:30:07;;;;;;;;;;;;;;;;;;4978573;28;20261;-73
2023/03/08 10:32:33;;;;;;;;;;;;;;;;;;4981970;28;19971;-72
2023/03/08 10:34:58;;;;;;;;;;;;;;;;;;4980589;28;19949;-72
2023/03/08 10:37:24;;;;;;;;;;;;;;;;;;4976908;28;19936;-73
2023/03/08 10:39:52;;;;;;;;;;;;;;;;;;4978874;28;19920;-73
2023/03/08 10:42:18;;;;;;;;;;;;;;;;;;4976351;28;19920;-72
2023/03/08 10:44:44;;;;;;;;;;;;;;;;;;4976349;28;20382;-72
2023/03/08 10:47:10;;;;;;;;;;;;;;;;;;4984247;28;19917;-72
2023/03/08 10:49:36;;;;;;;;;;;;;;;;;;4980432;28;21875;-72
2023/03/08 10:52:01;;;;;;;;;;;;;;;;;;4979752;28;20797;-72
2023/03/08 10:54:28;;;;;;;;;;;;;;;;;;4978415;28;19913;-72
2023/03/08 10:56:54;;;;;;;;;;;;;;;;;;4980761;28;20003;-73
2023/03/08 10:59:21;;;;;;;;;;;;;;;;;;4973267;28;20254;-71
2023/03/08 11:01:47;;;;;;;;;;;;;;;;;;4978756;28;19921;-73
2023/03/08 11:04:13;;;;;;;;;;;;;;;;;;4978728;28;19910;-73
2023/03/08 11:06:39;;;;;;;;;;;;;;;;;;4972474;28;19922;-74
2023/03/08 11:09:05;;;;;;;;;;;;;;;;;;4979455;28;20038;-74
2023/03/08 11:11:31;;;;;;;;;;;;;;;;;;4968964;28;19924;-74
2023/03/08 11:13:57;;;;;;;;;;;;;;;;;;4979437;28;20376;-73
2023/03/08 11:16:23;;;;;;;;;;;;;;;;;;4976219;28;19921;-71
2023/03/08 11:18:49;;;;;;;;;;;;;;;;;;4977669;28;19912;-72
2023/03/08 11:21:15;;;;;;;;;;;;;;;;;;4978975;28;20248;-72
2023/03/08 11:23:41;;;;;;;;;;;;;;;;;;4974957;28;20506;-72
2023/03/08 11:26:07;;;;;;;;;;;;;;;;;;4977263;28;19924;-72
2023/03/08 11:28:33;;;;;;;;;;;;;;;;;;4975592;28;19921;-72
2023/03/08 11:30:59;;;;;;;;;;;;;;;;;;4983196;28;19932;-72
2023/03/08 11:33:25;;;;;;;;;;;;;;;;;;4974827;28;19983;-72
2023/03/08 11:35:51;;;;;;;;;;;;;;;;;;4977259;28;19940;-72
2023/03/08 11:38:17;;;;;;;;;;;;;;;;;;4970604;28;20405;-73
2023/03/08 11:40:43;;;;;;;;;;;;;;;;;;4976042;28;20685;-72
2023/03/08 11:43:09;;;;;;;;;;;;;;;;;;4976962;28;20274;-72
2023/03/08 11:45:35;;;;;;;;;;;;;;;;;;4975557;28;20023;-72
2023/03/08 11:48:01;;;;;;;;;;;;;;;;;;4975894;28;19922;-71
2023/03/08 11:50:27;;;;;;;;;;;;;;;;;;4975271;28;19991;-72
2023/03/08 11:52:53;;;;;;;;;;;;;;;;;;4974547;28;21074;-72
2023/03/08 11:55:20;;;;;;;;;;;;;;;;;;4971968;28;19914;-72
2023/03/08 11:57:46;;;;;;;;;;;;;;;;;;4982045;28;20430;-74
2023/03/08 12:00:12;;;;;;;;;;;;;;;;;;4974977;28;19913;-75
2023/03/08 12:02:38;;;;;;;;;;;;;;;;;;4976931;28;19921;-74
2023/03/08 12:05:04;;;;;;;;;;;;;;;;;;4975953;28;19920;-73
2023/03/08 12:07:31;;;;;;;;;;;;;;;;;;4974141;28;19921;-74
2023/03/08 12:09:57;;;;;;;;;;;;;;;;;;4976751;28;20513;-72
2023/03/08 12:12:23;;;;;;;;;;;;;;;;;;4970565;28;20441;-72
2023/03/08 12:14:49;;;;;;;;;;;;;;;;;;4974626;28;20446;-71
2023/03/08 12:17:15;;;;;;;;;;;;;;;;;;4972824;28;20344;-72
2023/03/08 12:19:41;;;;;;;;;;;;;;;;;;4973156;28;20308;-72
2023/03/08 12:22:13;;;;;;;;;;;;;;;;;;4976485;28;20008;-73
2023/03/08 12:24:39;;;;;;;;;;;;;;;;;;4972550;28;20076;-73
2023/03/08 12:27:05;;;;;;;;;;;;;;;;;;4975228;28;20382;-73
2023/03/08 12:29:31;;;;;;;;;;;;;;;;;;4971046;28;19917;-72
2023/03/08 12:31:57;;;;;;;;;;;;;;;;;;4974830;28;19992;-73
2023/03/08 12:34:23;;;;;;;;;;;;;;;;;;4921571;28;1485613;-73
2023/03/08 12:36:49;;;;;;;;;;;;;;;;;;4978390;28;19917;-74
2023/03/08 12:39:15;;;;;;;;;;;;;;;;;;4977789;28;19913;-74
2023/03/08 12:41:41;;;;;;;;;;;;;;;;;;4973143;28;20008;-74
2023/03/08 12:44:07;;;;;;;;;;;;;;;;;;4976232;28;19913;-74
2023/03/08 12:46:33;;;;;;;;;;;;;;;;;;4977081;28;19923;-74
2023/03/08 12:48:58;;;;;;;;;;;;;;;;;;4977297;28;19920;-75
2023/03/08 12:51:25;;;;;;;;;;;;;;;;;;4975145;28;20374;-74
2023/03/08 12:53:51;;;;;;;;;;;;;;;;;;4977486;28;19917;-74
2023/03/08 12:56:17;;;;;;;;;;;;;;;;;;4974564;28;19917;-72
2023/03/08 12:58:43;;;;;;;;;;;;;;;;;;4976269;28;20025;-73
2023/03/08 13:01:09;;;;;;;;;;;;;;;;;;4974171;28;19948;-73
2023/03/08 13:03:36;;;;;;;;;;;;;;;;;;4970506;28;20370;-73
2023/03/08 13:06:05;;;;;;;;;;;;;;;;;;4972714;28;19959;-73
2023/03/08 13:08:31;;;;;;;;;;;;;;;;;;4973756;28;19921;-73
2023/03/08 13:10:57;;;;;;;;;;;;;;;;;;4977243;28;19965;-73
2023/03/08 13:13:23;;;;;;;;;;;;;;;;;;4971038;28;19913;-74
2023/03/08 13:15:58;;;;;;;;;;;;;;;;;;4977296;28;19940;-74
2023/03/08 13:18:24;;;;;;;;;;;;;;;;;;4969555;28;19913;-74
2023/03/08 13:20:53;;;;;;;;;;;;;;;;;;4976684;28;19917;-74
2023/03/08 13:23:19;;;;;;;;;;;;;;;;;;4975799;28;20309;-74
2023/03/08 13:25:45;;;;;;;;;;;;;;;;;;4974413;28;20620;-75
2023/03/08 13:28:11;;;;;;;;;;;;;;;;;;4974066;28;19918;-74
2023/03/08 13:30:37;;;;;;;;;;;;;;;;;;4971654;28;21316;-76
2023/03/08 13:33:03;;;;;;;;;;;;;;;;;;4977016;28;19972;-75
2023/03/08 13:35:29;;;;;;;;;;;;;;;;;;4969048;28;19922;-73
2023/03/08 13:37:55;;;;;;;;;;;;;;;;;;4971026;28;19918;-75
2023/03/08 13:40:21;;;;;;;;;;;;;;;;;;4973491;28;19913;-74
2023/03/08 13:42:47;;;;;;;;;;;;;;;;;;4973445;28;20028;-74
2023/03/08 13:45:12;;;;;;;;;;;;;;;;;;4978305;28;19910;-74
2023/03/08 13:47:39;;;;;;;;;;;;;;;;;;4974278;28;19921;-72
2023/03/08 13:50:05;;;;;;;;;;;;;;;;;;4976635;28;19921;-74
2023/03/08 13:52:31;;;;;;;;;;;;;;;;;;4975709;28;20322;-75
2023/03/08 13:54:57;;;;;;;;;;;;;;;;;;4979288;28;19994;-72
2023/03/08 13:57:23;;;;;;;;;;;;;;;;;;4978485;28;19992;-73
2023/03/08 13:59:49;;;;;;;;;;;;;;;;;;4976131;28;19936;-73
2023/03/08 14:02:15;;;;;;;;;;;;;;;;;;4974932;28;19920;-74
2023/03/08 14:04:41;;;;;;;;;;;;;;;;;;4973071;28;20391;-74
2023/03/08 14:07:07;;;;;;;;;;;;;;;;;;4975254;28;19921;-74
2023/03/08 14:09:33;;;;;;;;;;;;;;;;;;4976760;28;20287;-74
2023/03/08 14:11:59;;;;;;;;;;;;;;;;;;4975274;28;19997;-75
2023/03/08 14:14:25;;;;;;;;;;;;;;;;;;4972384;28;20432;-74
2023/03/08 14:16:51;;;;;;;;;;;;;;;;;;4976240;28;19914;-72
2023/03/08 14:19:17;;;;;;;;;;;;;;;;;;4972430;28;20557;-74
2023/03/08 14:21:43;;;;;;;;;;;;;;;;;;4978272;28;19913;-75
2023/03/08 14:24:09;;;;;;;;;;;;;;;;;;4977800;28;19913;-74
2023/03/08 14:26:35;;;;;;;;;;;;;;;;;;4974569;28;19924;-73
2023/03/08 14:29:01;;;;;;;;;;;;;;;;;;4978038;28;20708;-73
2023/03/08 14:31:27;;;;;;;;;;;;;;;;;;4973892;28;19936;-74
2023/03/08 14:33:53;;;;;;;;;;;;;;;;;;4981700;28;20365;-73
2023/03/08 14:36:19;;;;;;;;;;;;;;;;;;4971541;28;19929;-74
2023/03/08 14:38:45;;;;;;;;;;;;;;;;;;4979230;28;19918;-73
2023/03/08 14:41:14;;;;;;;;;;;;;;;;;;4977640;28;19924;-73
2023/03/08 14:43:40;;;;;;;;;;;;;;;;;;4974437;28;20016;-76
2023/03/08 14:46:08;;;;;;;;;;;;;;;;;;4980461;28;20233;-73
2023/03/08 14:48:33;;;;;;;;;;;;;;;;;;4976719;28;20391;-74
2023/03/08 14:51:03;;;;;;;;;;;;;;;;;;4975199;28;19940;-74
2023/03/08 14:53:29;;;;;;;;;;;;;;;;;;4972179;28;20450;-74
2023/03/08 14:55:55;;;;;;;;;;;;;;;;;;4976231;28;19920;-74
2023/03/08 14:58:21;;;;;;;;;;;;;;;;;;4972882;28;19922;-73
2023/03/08 15:00:47;;;;;;;;;;;;;;;;;;4974605;28;19914;-74
2023/03/08 15:03:13;;;;;;;;;;;;;;;;;;4971799;28;19914;-74
2023/03/08 15:05:39;;;;;;;;;;;;;;;;;;4973035;28;20413;-75
2023/03/08 15:08:05;;;;;;;;;;;;;;;;;;4977000;28;20921;-74
2023/03/08 15:10:31;;;;;;;;;;;;;;;;;;4977446;28;20020;-73
2023/03/08 15:12:57;;;;;;;;;;;;;;;;;;4972761;28;20008;-73
2023/03/08 15:15:23;;;;;;;;;;;;;;;;;;4970867;28;19914;-73
2023/03/08 15:17:49;;;;;;;;;;;;;;;;;;4974680;28;20004;-73
2023/03/08 15:20:15;;;;;;;;;;;;;;;;;;4972751;28;20467;-73
2023/03/08 15:22:40;;;;;;;;;;;;;;;;;;4969907;28;20269;-73
2023/03/08 15:25:06;;;;;;;;;;;;;;;;;;4975264;28;20715;-73
2023/03/08 15:27:35;;;;;;;;;;;;;;;;;;4972235;28;20045;-74
2023/03/08 15:30:04;;;;;;;;;;;;;;;;;;4970263;28;20569;-74
2023/03/08 15:32:30;;;;;;;;;;;;;;;;;;4971144;28;20469;-74
2023/03/08 15:34:56;;;;;;;;;;;;;;;;;;4973192;28;20548;-73
2023/03/08 15:37:22;;;;;;;;;;;;;;;;;;4972084;28;19917;-74
2023/03/08 15:39:48;;;;;;;;;;;;;;;;;;4977248;28;20284;-73
2023/03/08 15:42:14;;;;;;;;;;;;;;;;;;4972212;28;20379;-74
2023/03/08 15:44:40;;;;;;;;;;;;;;;;;;4968348;28;19918;-73
2023/03/08 15:47:12;;;;;;;;;;;;;;;;;;4971029;28;20316;-74
2023/03/08 15:49:38;;;;;;;;;;;;;;;;;;4972496;28;19967;-73
2023/03/08 15:52:04;;;;;;;;;;;;;;;;;;4974218;28;19944;-74
2023/03/08 15:54:33;;;;;;;;;;;;;;;;;;4972243;28;19921;-74
2023/03/08 15:56:59;;;;;;;;;;;;;;;;;;4973874;28;20415;-74
2023/03/08 15:59:25;;;;;;;;;;;;;;;;;;4966645;28;19924;-74
2023/03/08 16:01:51;;;;;;;;;;;;;;;;;;4974958;28;19991;-74
2023/03/08 16:04:23;;;;;;;;;;;;;;;;;;4975817;28;20004;-73